createdAt,value
2023-04-18T00:02:04.390Z,10.58
2023-04-18T00:04:34.156Z,10.57
2023-04-18T00:07:02.246Z,10.53
2023-04-18T00:09:30.021Z,10.52
2023-04-18T00:11:57.839Z,10.51
2023-04-18T00:14:25.499Z,10.51
2023-04-18T00:16:54.364Z,10.55
2023-04-18T00:19:22.570Z,10.56
2023-04-18T00:21:50.231Z,10.56
2023-04-18T00:24:17.891Z,10.55
2023-04-18T00:26:45.755Z,10.53
2023-04-18T00:29:13.414Z,10.53
2023-04-18T00:31:41.084Z,10.58
2023-04-18T00:34:08.742Z,10.61
2023-04-18T00:36:36.401Z,10.62
2023-04-18T00:39:04.184Z,10.62
2023-04-18T00:41:31.936Z,10.63
2023-04-18T00:43:59.589Z,10.66
2023-04-18T00:46:27.389Z,10.70
2023-04-18T00:48:55.222Z,10.71
2023-04-18T00:51:22.887Z,10.71
2023-04-18T00:53:50.929Z,10.70
2023-04-18T00:56:18.720Z,10.70
2023-04-18T00:58:46.381Z,10.71
2023-04-18T01:01:14.099Z,10.76
2023-04-18T01:03:42.150Z,10.76
2023-04-18T01:06:10.078Z,10.73
2023-04-18T01:08:37.752Z,10.71
2023-04-18T01:11:05.536Z,10.69
2023-04-18T01:13:33.175Z,10.66
2023-04-18T01:16:00.854Z,10.69
2023-04-18T01:18:31.666Z,10.67
2023-04-18T01:21:00.557Z,10.64
2023-04-18T01:23:28.227Z,10.63
2023-04-18T01:25:55.986Z,10.61
2023-04-18T01:28:23.754Z,10.61
2023-04-18T01:30:51.585Z,10.64
2023-04-18T01:33:19.481Z,10.62
2023-04-18T01:35:47.245Z,10.62
2023-04-18T01:38:15.009Z,10.60
2023-04-18T01:40:42.670Z,10.58
2023-04-18T01:43:10.654Z,10.58
2023-04-18T01:45:38.405Z,10.64
2023-04-18T01:48:06.177Z,10.65
2023-04-18T01:50:33.833Z,10.64
2023-04-18T01:53:01.535Z,10.63
2023-04-18T01:55:29.255Z,10.62
2023-04-18T01:57:57.024Z,10.62
2023-04-18T02:00:24.683Z,10.66
2023-04-18T02:02:52.565Z,10.66
2023-04-18T02:05:20.515Z,10.63
2023-04-18T02:07:50.270Z,10.62
2023-04-18T02:10:17.998Z,10.61
2023-04-18T02:12:45.774Z,10.61
2023-04-18T02:15:13.527Z,10.64
2023-04-18T02:17:41.965Z,10.63
2023-04-18T02:20:11.038Z,10.59
2023-04-18T02:22:39.794Z,10.57
2023-04-18T02:25:07.457Z,10.54
2023-04-18T02:27:35.205Z,10.51
2023-04-18T02:30:02.869Z,10.49
2023-04-18T02:32:30.774Z,10.48
2023-04-18T02:34:58.516Z,10.45
2023-04-18T02:37:26.267Z,10.44
2023-04-18T02:39:54.242Z,10.41
2023-04-18T02:42:22.000Z,10.38
2023-04-18T02:44:49.656Z,10.37
2023-04-18T02:47:17.320Z,10.38
2023-04-18T02:49:44.982Z,10.34
2023-04-18T02:52:12.644Z,10.30
2023-04-18T02:54:40.305Z,10.27
2023-04-18T02:57:07.966Z,10.25
2023-04-18T02:59:35.650Z,10.23
2023-04-18T03:02:03.547Z,10.25
2023-04-18T03:04:32.121Z,10.21
2023-04-18T03:06:59.840Z,10.17
2023-04-18T03:09:27.474Z,10.15
2023-04-18T03:11:55.164Z,10.13
2023-04-18T03:14:22.834Z,10.12
2023-04-18T03:16:52.981Z,10.14
2023-04-18T03:19:22.450Z,10.14
2023-04-18T03:21:50.215Z,10.09
2023-04-18T03:24:17.986Z,10.06
2023-04-18T03:26:46.259Z,10.06
2023-04-18T03:29:14.018Z,10.06
2023-04-18T03:31:41.969Z,10.08
2023-04-18T03:34:09.751Z,10.07
2023-04-18T03:36:37.515Z,10.06
2023-04-18T03:39:05.279Z,10.05
2023-04-18T03:41:32.940Z,10.03
2023-04-18T03:44:00.610Z,10.03
2023-04-18T03:46:28.422Z,10.08
2023-04-18T03:48:56.136Z,10.09
2023-04-18T03:51:23.898Z,10.07
2023-04-18T03:53:51.561Z,10.07
2023-04-18T03:56:19.220Z,10.06
2023-04-18T03:58:46.985Z,10.07
2023-04-18T04:01:14.653Z,10.13
2023-04-18T04:03:42.520Z,10.12
2023-04-18T04:06:10.586Z,10.09
2023-04-18T04:08:38.245Z,10.07
2023-04-18T04:11:06.114Z,10.08
2023-04-18T04:13:33.779Z,10.06
2023-04-18T04:16:01.639Z,10.08
2023-04-18T04:18:32.481Z,10.12
2023-04-18T04:21:00.144Z,10.09
2023-04-18T04:23:27.800Z,10.08
2023-04-18T04:25:55.992Z,10.05
2023-04-18T04:28:24.048Z,10.02
2023-04-18T04:30:51.912Z,10.03
2023-04-18T04:33:19.880Z,10.06
2023-04-18T04:35:47.542Z,10.04
2023-04-18T04:38:20.219Z,10.04
2023-04-18T04:40:47.878Z,10.02
2023-04-18T04:43:16.668Z,10.01
2023-04-18T04:45:44.773Z,10.00
2023-04-18T04:48:12.623Z,10.01
2023-04-18T04:50:40.508Z,10.05
2023-04-18T04:53:08.246Z,10.06
2023-04-18T04:55:36.220Z,10.05
2023-04-18T04:58:03.871Z,10.05
2023-04-18T05:00:31.646Z,10.04
2023-04-18T05:03:00.173Z,10.03
2023-04-18T05:05:28.092Z,10.04
2023-04-18T05:07:55.741Z,10.06
2023-04-18T05:10:24.124Z,10.07
2023-04-18T05:12:51.889Z,10.07
2023-04-18T05:15:19.544Z,10.08
2023-04-18T05:17:47.180Z,10.07
2023-04-18T05:20:15.168Z,10.05
2023-04-18T05:22:42.941Z,10.05
2023-04-18T05:25:10.808Z,10.12
2023-04-18T05:27:38.512Z,10.15
2023-04-18T05:30:06.232Z,10.13
2023-04-18T05:32:33.929Z,10.11
2023-04-18T05:35:01.662Z,10.11
2023-04-18T05:37:29.426Z,10.12
2023-04-18T05:39:58.758Z,10.14
2023-04-18T05:42:28.230Z,10.21
2023-04-18T05:44:56.109Z,10.23
2023-04-18T05:47:26.920Z,10.23
2023-04-18T05:49:54.801Z,10.25
2023-04-18T05:52:22.567Z,10.26
2023-04-18T05:54:50.227Z,10.27
2023-04-18T05:57:17.900Z,10.29
2023-04-18T05:59:45.659Z,10.37
2023-04-18T06:02:13.878Z,10.38
2023-04-18T06:04:45.476Z,10.39
2023-04-18T06:07:13.478Z,10.42
2023-04-18T06:09:41.320Z,10.45
2023-04-18T06:12:08.982Z,10.48
2023-04-18T06:14:36.752Z,10.50
2023-04-18T06:17:04.418Z,10.57
2023-04-18T06:19:32.066Z,10.62
2023-04-18T06:21:59.727Z,10.65
2023-04-18T06:24:27.972Z,10.69
2023-04-18T06:26:57.631Z,10.73
2023-04-18T06:29:27.423Z,10.76
2023-04-18T06:31:55.119Z,10.80
2023-04-18T06:34:22.953Z,10.91
2023-04-18T06:36:50.613Z,10.99
2023-04-18T06:39:18.481Z,11.06
2023-04-18T06:41:46.141Z,11.12
2023-04-18T06:44:13.813Z,11.18
2023-04-18T06:46:41.465Z,11.23
2023-04-18T06:49:09.125Z,11.27
2023-04-18T06:51:36.888Z,11.29
2023-04-18T06:54:04.654Z,11.28
2023-04-18T06:56:33.471Z,11.28
2023-04-18T06:59:02.848Z,11.30
2023-04-18T07:01:30.566Z,11.30
2023-04-18T07:03:58.326Z,11.30
2023-04-18T07:06:26.957Z,11.30
2023-04-18T07:09:00.195Z,11.34
2023-04-18T07:11:28.013Z,11.41
2023-04-18T07:13:55.783Z,11.42
2023-04-18T07:16:23.635Z,11.42
2023-04-18T07:18:51.917Z,11.44
2023-04-18T07:21:19.585Z,11.46
2023-04-18T07:23:47.265Z,11.47
2023-04-18T07:26:15.006Z,11.48
2023-04-18T07:28:42.770Z,11.48
2023-04-18T07:31:11.807Z,11.50
2023-04-18T07:33:39.632Z,11.55
2023-04-18T07:36:07.414Z,11.58
2023-04-18T07:38:38.127Z,11.57
2023-04-18T07:41:05.790Z,11.59
2023-04-18T07:43:33.573Z,11.61
2023-04-18T07:46:01.387Z,11.62
2023-04-18T07:48:29.083Z,11.65
2023-04-18T07:50:56.847Z,11.67
2023-04-18T07:53:24.517Z,11.72
2023-04-18T07:55:52.172Z,11.79
2023-04-18T07:58:20.045Z,11.85
2023-04-18T08:00:47.836Z,11.90
2023-04-18T08:03:16.399Z,11.96
2023-04-18T08:05:44.380Z,12.00
2023-04-18T08:08:12.146Z,12.04
2023-04-18T08:10:39.986Z,12.07
2023-04-18T08:13:08.360Z,12.11
2023-04-18T08:15:36.233Z,12.13
2023-04-18T08:18:04.043Z,12.16
2023-04-18T08:20:31.860Z,12.25
2023-04-18T08:23:05.634Z,12.29
2023-04-18T08:25:36.457Z,12.33
2023-04-18T08:28:04.596Z,12.38
2023-04-18T08:30:32.342Z,12.41
2023-04-18T08:33:00.391Z,12.45
2023-04-18T08:35:28.288Z,12.49
2023-04-18T08:37:56.045Z,12.52
2023-04-18T08:40:23.809Z,12.53
2023-04-18T08:42:51.469Z,12.55
2023-04-18T08:45:19.126Z,12.58
2023-04-18T08:47:46.933Z,12.60
2023-04-18T08:50:14.666Z,12.65
2023-04-18T08:52:44.572Z,12.74
2023-04-18T08:55:12.227Z,12.80
2023-04-18T08:57:40.099Z,12.86
2023-04-18T09:00:10.828Z,12.93
2023-04-18T09:02:42.427Z,12.99
2023-04-18T09:05:10.660Z,13.03
2023-04-18T09:07:38.431Z,13.06
2023-04-18T09:10:06.189Z,13.09
2023-04-18T09:12:34.769Z,13.12
2023-04-18T09:15:03.863Z,13.15
2023-04-18T09:17:31.896Z,13.17
2023-04-18T09:20:00.132Z,13.19
2023-04-18T09:22:27.975Z,13.21
2023-04-18T09:24:57.581Z,13.23
2023-04-18T09:27:25.355Z,13.28
2023-04-18T09:29:56.525Z,13.36
2023-04-18T09:32:25.707Z,13.39
2023-04-18T09:34:54.578Z,13.40
2023-04-18T09:37:22.244Z,13.44
2023-04-18T09:39:51.134Z,13.53
2023-04-18T09:42:19.000Z,13.62
2023-04-18T09:44:46.664Z,13.72
2023-04-18T09:47:14.325Z,13.80
2023-04-18T09:49:41.986Z,13.87
2023-04-18T09:52:09.648Z,13.93
2023-04-18T09:54:37.407Z,13.97
2023-04-18T09:57:05.074Z,14.01
2023-04-18T09:59:32.742Z,14.03
2023-04-18T10:02:00.654Z,14.08
2023-04-18T10:04:28.579Z,14.11
2023-04-18T10:06:56.638Z,14.16
2023-04-18T10:09:24.505Z,14.19
2023-04-18T10:11:52.181Z,14.19
2023-04-18T10:14:20.033Z,14.22
2023-04-18T10:16:49.899Z,14.25
2023-04-18T10:19:18.655Z,14.31
2023-04-18T10:21:46.397Z,14.39
2023-04-18T10:24:14.219Z,14.42
2023-04-18T10:26:42.135Z,14.45
2023-04-18T10:29:10.212Z,14.47
2023-04-18T10:31:37.891Z,14.48
2023-04-18T10:34:06.269Z,14.53
2023-04-18T10:36:34.208Z,14.55
2023-04-18T10:39:03.732Z,14.55
2023-04-18T10:41:31.461Z,14.57
2023-04-18T10:43:59.148Z,14.59
2023-04-18T10:46:32.228Z,14.61
2023-04-18T10:49:00.622Z,14.64
2023-04-18T10:51:29.399Z,14.64
2023-04-18T10:53:57.356Z,14.67
2023-04-18T10:56:26.362Z,14.69
2023-04-18T10:58:54.332Z,14.71
2023-04-18T11:01:22.029Z,14.70
2023-04-18T11:03:49.924Z,14.70
2023-04-18T11:06:17.624Z,14.69
2023-04-18T11:08:45.902Z,14.70
2023-04-18T11:11:13.561Z,14.71
2023-04-18T11:13:41.327Z,14.70
2023-04-18T11:16:09.117Z,14.70
2023-04-18T11:18:36.856Z,14.70
2023-04-18T11:21:04.727Z,14.70
2023-04-18T11:23:32.601Z,14.69
2023-04-18T11:26:00.662Z,14.68
2023-04-18T11:28:28.936Z,14.65
2023-04-18T11:30:56.698Z,14.61
2023-04-18T11:33:24.974Z,14.62
2023-04-18T11:35:52.634Z,14.64
2023-04-18T11:38:21.305Z,14.68
2023-04-18T11:40:50.640Z,14.69
2023-04-18T11:43:18.487Z,14.72
2023-04-18T11:45:46.156Z,14.75
2023-04-18T11:48:14.023Z,14.77
2023-04-18T11:50:41.675Z,14.77
2023-04-18T11:53:09.338Z,14.78
2023-04-18T11:55:37.000Z,14.78
2023-04-18T11:58:04.864Z,14.79
2023-04-18T12:00:33.062Z,14.78
2023-04-18T12:03:02.086Z,14.78
2023-04-18T12:05:30.295Z,14.80
2023-04-18T12:07:58.277Z,14.82
2023-04-18T12:10:26.661Z,14.86
2023-04-18T12:12:54.424Z,14.87
2023-04-18T12:15:24.437Z,14.86
2023-04-18T12:17:52.469Z,14.87
2023-04-18T12:20:20.380Z,14.90
2023-04-18T12:22:49.678Z,14.91
2023-04-18T12:25:23.560Z,14.91
2023-04-18T12:27:53.907Z,14.94
2023-04-18T12:30:22.589Z,14.95
2023-04-18T12:32:50.276Z,14.97
2023-04-18T12:35:18.529Z,14.97
2023-04-18T12:37:46.705Z,14.97
2023-04-18T12:40:14.359Z,14.99
2023-04-18T12:42:42.228Z,15.01
2023-04-18T12:45:09.889Z,15.05
2023-04-18T12:47:37.517Z,15.09
2023-04-18T12:50:06.039Z,15.13
2023-04-18T12:52:33.899Z,15.16
2023-04-18T12:55:01.694Z,15.21
2023-04-18T12:57:31.625Z,15.24
2023-04-18T12:59:59.548Z,15.29
2023-04-18T13:02:29.488Z,15.33
2023-04-18T13:04:57.548Z,15.37
2023-04-18T13:07:34.619Z,15.44
2023-04-18T13:10:02.399Z,15.47
2023-04-18T13:12:30.871Z,15.53
2023-04-18T13:14:58.686Z,15.55
2023-04-18T13:17:26.500Z,15.56
2023-04-18T13:19:54.157Z,15.54
2023-04-18T13:22:21.940Z,15.51
2023-04-18T13:24:49.684Z,15.49
2023-04-18T13:27:17.355Z,15.46
2023-04-18T13:29:46.033Z,15.42
2023-04-18T13:32:13.748Z,15.38
2023-04-18T13:34:41.561Z,15.35
2023-04-18T13:37:09.529Z,15.30
2023-04-18T13:39:37.190Z,15.26
2023-04-18T13:42:04.959Z,15.24
2023-04-18T13:44:32.723Z,15.27
2023-04-18T13:47:00.383Z,15.31
2023-04-18T13:49:28.056Z,15.33
2023-04-18T13:51:57.861Z,15.32
2023-04-18T13:54:26.745Z,15.22
2023-04-18T13:56:54.510Z,15.11
2023-04-18T13:59:22.275Z,15.08
2023-04-18T14:01:50.006Z,15.07
2023-04-18T14:04:18.235Z,15.05
2023-04-18T14:06:47.869Z,15.04
2023-04-18T14:09:17.129Z,15.04
2023-04-18T14:11:44.883Z,15.07
2023-04-18T14:14:12.554Z,15.08
2023-04-18T14:16:49.438Z,15.10
2023-04-18T14:19:18.102Z,15.11
2023-04-18T14:21:45.773Z,15.10
2023-04-18T14:24:13.532Z,15.09
2023-04-18T14:26:41.297Z,15.08
2023-04-18T14:29:08.996Z,15.04
2023-04-18T14:31:36.777Z,14.95
2023-04-18T14:34:04.590Z,14.89
2023-04-18T14:36:32.865Z,14.85
2023-04-18T14:39:00.735Z,14.86
2023-04-18T14:41:28.495Z,14.82
2023-04-18T14:43:56.363Z,14.71
2023-04-18T14:46:24.155Z,14.62
2023-04-18T14:48:52.001Z,14.56
2023-04-18T14:51:19.756Z,14.51
2023-04-18T14:53:47.519Z,14.46
2023-04-18T14:56:16.439Z,14.41
2023-04-18T14:58:44.209Z,14.34
2023-04-18T15:01:11.942Z,14.27
2023-04-18T15:03:40.298Z,14.21
2023-04-18T15:06:08.079Z,14.16
2023-04-18T15:08:36.353Z,14.15
2023-04-18T15:11:04.540Z,14.14
2023-04-18T15:13:32.601Z,14.13
2023-04-18T15:16:00.286Z,14.14
2023-04-18T15:18:28.030Z,14.14
2023-04-18T15:20:57.227Z,14.14
2023-04-18T15:23:24.997Z,14.12
2023-04-18T15:25:52.651Z,14.10
2023-04-18T15:28:20.421Z,14.07
2023-04-18T15:30:48.077Z,14.07
2023-04-18T15:33:16.055Z,14.04
2023-04-18T15:35:43.720Z,14.02
2023-04-18T15:38:11.745Z,14.02
2023-04-18T15:40:39.443Z,14.02
2023-04-18T15:43:07.209Z,14.03
2023-04-18T15:45:34.873Z,14.02
2023-04-18T15:48:02.607Z,14.02
2023-04-18T15:50:32.838Z,14.01
2023-04-18T15:53:01.744Z,14.02
2023-04-18T15:55:29.411Z,14.01
2023-04-18T15:57:57.291Z,14.00
2023-04-18T16:00:25.035Z,13.98
2023-04-18T16:02:52.865Z,13.95
2023-04-18T16:05:20.663Z,13.91
2023-04-18T16:07:48.336Z,13.91
2023-04-18T16:10:16.199Z,13.90
2023-04-18T16:12:43.904Z,13.90
2023-04-18T16:15:11.617Z,13.89
2023-04-18T16:17:39.422Z,13.89
2023-04-18T16:20:08.783Z,13.89
2023-04-18T16:22:36.556Z,13.87
2023-04-18T16:25:04.424Z,13.86
2023-04-18T16:27:32.384Z,13.84
2023-04-18T16:30:00.049Z,13.84
2023-04-18T16:32:27.754Z,13.83
2023-04-18T16:34:55.579Z,13.81
2023-04-18T16:37:23.350Z,13.80
2023-04-18T16:39:51.316Z,13.79
2023-04-18T16:42:19.292Z,13.78
2023-04-18T16:44:47.456Z,13.78
2023-04-18T16:47:15.536Z,13.76
2023-04-18T16:49:44.998Z,13.74
2023-04-18T16:52:12.794Z,13.73
2023-04-18T16:54:40.560Z,13.72
2023-04-18T16:57:08.223Z,13.71
2023-04-18T16:59:35.986Z,13.68
2023-04-18T17:02:03.741Z,13.67
2023-04-18T17:04:31.622Z,13.66
2023-04-18T17:06:59.384Z,13.64
2023-04-18T17:09:27.142Z,13.63
2023-04-18T17:11:54.971Z,13.60
2023-04-18T17:14:22.671Z,13.58
2023-04-18T17:16:53.353Z,13.56
2023-04-18T17:19:21.475Z,13.54
2023-04-18T17:21:51.128Z,13.52
2023-04-18T17:24:19.053Z,13.49
2023-04-18T17:26:46.712Z,13.46
2023-04-18T17:29:14.583Z,13.43
2023-04-18T17:31:42.619Z,13.40
2023-04-18T17:34:10.418Z,13.35
2023-04-18T17:36:38.079Z,13.30
2023-04-18T17:39:06.813Z,13.25
2023-04-18T17:41:34.733Z,13.23
2023-04-18T17:44:02.493Z,13.21
2023-04-18T17:46:30.508Z,13.19
2023-04-18T17:48:58.225Z,13.18
2023-04-18T17:51:27.526Z,13.15
2023-04-18T17:53:55.289Z,13.11
2023-04-18T17:56:23.079Z,13.07
2023-04-18T17:58:51.650Z,13.02
2023-04-18T18:01:19.842Z,12.98
2023-04-18T18:03:48.384Z,12.94
2023-04-18T18:06:16.487Z,12.91
2023-04-18T18:08:44.241Z,12.89
2023-04-18T18:11:12.003Z,12.88
2023-04-18T18:13:39.761Z,12.87
2023-04-18T18:16:07.940Z,12.86
2023-04-18T18:18:36.624Z,12.85
2023-04-18T18:21:04.383Z,12.83
2023-04-18T18:23:32.160Z,12.82
2023-04-18T18:25:59.915Z,12.81
2023-04-18T18:28:27.681Z,12.79
2023-04-18T18:30:57.834Z,12.76
2023-04-18T18:33:25.559Z,12.76
2023-04-18T18:35:53.740Z,12.82
2023-04-18T18:38:21.907Z,12.84
2023-04-18T18:40:49.673Z,12.83
2023-04-18T18:43:17.334Z,12.83
2023-04-18T18:45:45.001Z,12.83
2023-04-18T18:48:12.819Z,12.83
2023-04-18T18:50:42.057Z,12.84
2023-04-18T18:53:10.331Z,12.84
2023-04-18T18:55:37.999Z,12.83
2023-04-18T18:58:08.122Z,12.81
2023-04-18T19:00:35.779Z,12.75
2023-04-18T19:03:03.736Z,12.70
2023-04-18T19:05:31.619Z,12.67
2023-04-18T19:07:59.273Z,12.63
2023-04-18T19:10:26.954Z,12.59
2023-04-18T19:12:54.720Z,12.58
2023-04-18T19:15:23.080Z,12.59
2023-04-18T19:17:50.869Z,12.56
2023-04-18T19:20:18.609Z,12.53
2023-04-18T19:22:46.267Z,12.50
2023-04-18T19:25:14.035Z,12.47
2023-04-18T19:27:41.697Z,12.45
2023-04-18T19:30:09.367Z,12.43
2023-04-18T19:32:37.350Z,12.40
2023-04-18T19:35:06.017Z,12.38
2023-04-18T19:37:36.543Z,12.34
2023-04-18T19:40:07.184Z,12.31
2023-04-18T19:42:35.145Z,12.31
2023-04-18T19:45:02.917Z,12.35
2023-04-18T19:47:34.056Z,12.36
2023-04-18T19:50:03.670Z,12.35
2023-04-18T19:52:31.427Z,12.35
2023-04-18T19:54:59.077Z,12.35
2023-04-18T19:57:27.974Z,12.33
2023-04-18T19:59:56.042Z,12.32
2023-04-18T20:02:24.346Z,12.31
2023-04-18T20:04:52.437Z,12.28
2023-04-18T20:07:20.361Z,12.23
2023-04-18T20:09:48.019Z,12.19
2023-04-18T20:12:15.760Z,12.17
2023-04-18T20:14:43.548Z,12.15
2023-04-18T20:17:11.419Z,12.12
2023-04-18T20:19:39.078Z,12.16
2023-04-18T20:22:06.946Z,12.14
2023-04-18T20:24:39.556Z,12.09
2023-04-18T20:27:07.588Z,12.07
2023-04-18T20:29:35.260Z,12.05
2023-04-18T20:32:03.035Z,12.03
2023-04-18T20:34:31.813Z,11.97
2023-04-18T20:37:00.208Z,11.91
2023-04-18T20:39:28.375Z,11.84
2023-04-18T20:41:57.931Z,11.79
2023-04-18T20:44:25.625Z,11.77
2023-04-18T20:46:53.797Z,11.81
2023-04-18T20:49:21.565Z,11.78
2023-04-18T20:51:49.225Z,11.73
2023-04-18T20:54:17.339Z,11.70
2023-04-18T20:56:45.589Z,11.67
2023-04-18T20:59:13.334Z,11.64
2023-04-18T21:01:41.496Z,11.62
2023-04-18T21:04:09.774Z,11.60
2023-04-18T21:06:37.566Z,11.58
2023-04-18T21:09:05.318Z,11.59
2023-04-18T21:11:33.086Z,11.64
2023-04-18T21:14:00.845Z,11.65
2023-04-18T21:16:28.690Z,11.62
2023-04-18T21:18:56.470Z,11.60
2023-04-18T21:21:24.136Z,11.57
2023-04-18T21:23:51.802Z,11.56
2023-04-18T21:26:19.559Z,11.52
2023-04-18T21:28:47.222Z,11.51
2023-04-18T21:31:14.942Z,11.50
2023-04-18T21:33:42.751Z,11.54
2023-04-18T21:36:10.408Z,11.57
2023-04-18T21:38:38.078Z,11.59
2023-04-18T21:41:05.736Z,11.59
2023-04-18T21:43:33.398Z,11.57
2023-04-18T21:46:01.173Z,11.56
2023-04-18T21:48:28.933Z,11.58
2023-04-18T21:50:56.689Z,11.59
2023-04-18T21:53:24.350Z,11.59
2023-04-18T21:55:52.120Z,11.59
2023-04-18T21:58:19.886Z,11.61
2023-04-18T22:00:47.660Z,11.65
2023-04-18T22:03:19.342Z,11.66
2023-04-18T22:05:47.585Z,11.65
2023-04-18T22:08:16.361Z,11.67
2023-04-18T22:10:45.051Z,11.68
2023-04-18T22:13:12.711Z,11.69
2023-04-18T22:15:41.197Z,11.69
2023-04-18T22:18:08.924Z,11.73
2023-04-18T22:20:36.822Z,11.74
2023-04-18T22:23:04.689Z,11.72
2023-04-18T22:25:32.352Z,11.71
2023-04-18T22:27:59.958Z,11.69
2023-04-18T22:30:27.885Z,11.67
2023-04-18T22:32:55.694Z,11.66
2023-04-18T22:35:23.510Z,11.64
2023-04-18T23:32:23.630Z,10.73
2023-04-18T23:34:51.563Z,10.69
2023-04-18T23:37:19.329Z,10.64
2023-04-18T23:39:46.988Z,10.63
2023-04-18T23:42:14.650Z,10.63
2023-04-18T23:44:42.416Z,10.65
2023-04-18T23:47:10.155Z,10.70
2023-04-18T23:49:37.940Z,10.70
2023-04-18T23:52:05.612Z,10.66
2023-04-18T23:54:33.263Z,10.63
2023-04-18T23:57:01.950Z,10.62
2023-04-18T23:59:29.611Z,10.61
